Latest Coastal Weather Observations for Point Stuart

IDD60701

Issued at 1:31 pm CST Saturday 25 March 2017 (issued every 10 minutes, with the page automatically refreshed every 10 minutes)

About coastal observations | Map of coastal stations | Coastal observations for NT | Marine services | Other Formats
Station Details ID: 014254 Name: POINT STUART Lat: -12.24 Lon: 131.88 Height: 1.0 m
Data from the previous 72 hours. | See also: Recent months at Point Stuart
Date/Time
CST
Temp
°C
Wind Pressure Rain since
9am
mm
Weather Cloud Vis
km
Sea
Height
m
Swell
Dir  Spd
kts
Gust
kts
hPa Trend Height
m
Period
s
Dir
25/01:30pm 31.5 N 8 13 1006.9 - 0.0 - - - - - - -
25/01:00pm 30.9 N 9 16 1007.3 - 0.0 - - - - - - -
25/12:30pm 30.7 N 9 14 1007.6 - 0.0 - - - - - - -
25/12:00pm 30.6 N 8 14 1008.0 - 0.0 - - - - - - -
25/11:30am 30.6 NNE 9 13 1008.3 - 0.0 - - - - - - -
25/11:00am 29.9 N 8 15 1008.5 - 0.0 - - - - - - -
25/10:30am 29.3 NNE 7 11 1008.5 - 0.0 - - - - - - -
25/10:00am 30.2 NNE 8 12 1008.4 - 0.0 - - - - - - -
25/09:30am 29.6 NNE 8 15 1008.1 - 0.0 - - - - - - -
25/09:00am 28.5 NNE 7 13 1007.8 - 9.2 - - - - - - -
25/08:30am 28.2 NE 9 14 1007.4 - 9.2 - - - - - - -
25/08:00am 27.9 NE 6 11 1007.0 - 9.2 - - - - - - -
25/07:30am 26.8 NNE 5 7 1007.0 - 9.2 - - - - - - -
25/07:00am 26.3 NNE 4 6 1006.5 - 9.2 - - - - - - -
25/06:30am 26.2 NNE 6 8 1006.4 - 9.2 - - - - - - -
25/06:00am 26.3 NNE 5 7 1006.3 - 9.2 - - - - - - -
25/05:30am 26.2 NNE 3 4 1006.4 - 9.2 - - - - - - -
25/05:00am 26.4 NNE 2 4 1006.5 - 9.2 - - - - - - -
25/04:30am 26.4 NE 4 8 1006.5 - 9.2 - - - - - - -
25/04:00am 26.3 NE 4 5 1006.0 - 9.0 - - - - - - -
25/03:30am 26.4 N 6 11 1006.7 - 8.0 - - - - - - -
25/03:00am 26.7 N 7 12 1006.4 - 5.6 - - - - - - -
25/02:30am 26.8 E 4 6 1006.7 - 4.2 - - - - - - -
25/02:00am 26.9 SSE 4 7 1007.2 - 4.2 - - - - - - -
25/01:30am 27.0 SE 5 8 1007.6 - 4.0 - - - - - - -
25/01:00am 27.3 SSE 5 8 1007.7 - 1.8 - - - - - - -
25/12:30am 28.0 S 3 5 1008.0 - 0.2 - - - - - - -
25/12:00am 27.9 ENE 3 4 1007.9 - 0.2 - - - - - - -
 
Date/Time
CST
Temp
°C
Wind Pressure Rain since
9am
mm
Weather Cloud Vis
km
Sea
Height
m
Swell
Dir  Spd
kts
Gust
kts
hPa Trend Height
m
Period
s
Dir
24/11:30pm 27.7 CALM 0 0 1008.4 - 0.2 - - - - - - -
24/11:00pm 27.6 CALM 0 0 1008.7 - 0.2 - - - - - - -
24/10:30pm 27.7 NNE 3 5 1008.7 - 0.2 - - - - - - -
24/10:00pm 27.7 NNE 2 5 1008.4 - 0.2 - - - - - - -
24/09:30pm 27.9 CALM 0 3 1007.8 - 0.2 - - - - - - -
24/09:00pm 27.9 N 2 4 1007.4 - 0.2 - - - - - - -
24/08:30pm 28.0 N 3 5 1006.8 - 0.2 - - - - - - -
24/08:00pm 28.3 N 5 8 1006.5 - 0.2 - - - - - - -
24/07:30pm 28.4 N 6 9 1006.2 - 0.2 - - - - - - -
24/07:00pm 28.5 N 6 10 1006.3 - 0.2 - - - - - - -
24/06:30pm 28.9 N 5 8 1006.2 - 0.2 - - - - - - -
24/06:00pm 29.5 N 8 12 1005.2 - 0.2 - - - - - - -
24/05:30pm 30.1 N 8 12 1005.1 - 0.2 - - - - - - -
24/05:00pm 30.2 N 8 13 1005.2 - 0.2 - - - - - - -
24/04:30pm 30.7 N 7 11 1005.2 - 0.2 - - - - - - -
24/04:00pm 31.4 NE 8 12 1005.2 - 0.2 - - - - - - -
24/03:30pm 31.2 NE 8 12 1005.6 - 0.2 - - - - - - -
24/03:00pm 31.3 NE 8 12 1006.0 - 0.2 - - - - - - -
24/02:30pm 30.8 ENE 8 11 1006.1 - 0.2 - - - - - - -
24/02:00pm 31.3 NE 7 11 1006.7 - 0.2 - - - - - - -
24/01:30pm 30.6 ENE 7 11 1007.1 - 0.2 - - - - - - -
24/01:00pm 30.6 ENE 9 13 1007.4 - 0.2 - - - - - - -
24/12:30pm 31.4 NE 7 11 1007.9 - 0.2 - - - - - - -
24/12:00pm 31.2 NE 8 13 1008.4 - 0.2 - - - - - - -
24/11:30am 31.1 NE 7 12 1008.9 - 0.2 - - - - - - -
24/11:00am 30.8 ENE 7 10 1009.2 - 0.2 - - - - - - -
24/10:30am 31.0 NE 8 11 1009.5 - 0.2 - - - - - - -
24/10:00am 30.6 NNE 6 8 1009.5 - 0.2 - - - - - - -
24/09:30am 29.9 E 6 9 1009.3 - 0.0 - - - - - - -
24/09:00am 28.7 SSE 6 9 1009.1 - 3.0 - - - - - - -
24/08:30am 27.6 SSE 6 9 1008.5 - 3.0 - - - - - - -
24/08:00am 26.7 SE 6 8 1008.4 - 3.0 - - - - - - -
24/07:30am 26.7 SSE 2 5 1008.2 - 3.0 - - - - - - -
24/07:00am 26.3 SSE 5 6 1008.2 - 3.0 - - - - - - -
24/06:30am 26.3 CALM 0 0 1007.9 - 3.0 - - - - - - -
24/06:00am 26.3 E 4 6 1007.4 - 3.0 - - - - - - -
24/05:30am 25.9 E 5 7 1007.2 - 3.0 - - - - - - -
24/05:00am 26.0 SE 4 6 1007.2 - 3.0 - - - - - - -
24/04:30am 26.2 SE 5 7 1007.5 - 3.0 - - - - - - -
24/04:00am 26.4 SE 7 9 1007.4 - 3.0 - - - - - - -
24/03:30am 26.6 SE 6 8 1007.3 - 3.0 - - - - - - -
24/03:00am 26.8 SSE 5 6 1007.3 - 3.0 - - - - - - -
24/02:30am 26.7 SE 5 6 1007.5 - 3.0 - - - - - - -
24/02:00am 26.7 SSE 4 5 1007.8 - 3.0 - - - - - - -
24/01:30am 26.5 CALM 0 4 1008.3 - 3.0 - - - - - - -
24/01:00am 26.1 CALM 0 0 1008.7 - 3.0 - - - - - - -
24/12:30am 26.0 CALM 0 0 1008.9 - 2.8 - - - - - - -
24/12:00am 25.7 CALM 0 0 1009.2 - 2.8 - - - - - - -
 
Date/Time
CST
Temp
°C
Wind Pressure Rain since
9am
mm
Weather Cloud Vis
km
Sea
Height
m
Swell
Dir  Spd
kts
Gust
kts
hPa Trend Height
m
Period
s
Dir
23/11:30pm 25.3 NNE 5 7 1009.5 - 2.2 - - - - - - -
23/11:00pm 25.0 NNE 7 10 1009.6 - 0.8 - - - - - - -
23/10:30pm 27.6 CALM 0 4 1009.7 - 0.0 - - - - - - -
23/10:00pm 27.5 CALM 0 0 1009.6 - 0.0 - - - - - - -
23/09:30pm 27.5 CALM 0 0 1009.4 - 0.0 - - - - - - -
23/09:00pm 27.3 N 1 3 1008.7 - 0.0 - - - - - - -
23/08:30pm 27.5 NNW 2 5 1008.5 - 0.0 - - - - - - -
23/08:00pm 27.6 N 4 6 1008.1 - 0.0 - - - - - - -
23/07:30pm 27.6 N 3 4 1007.8 - 0.0 - - - - - - -
23/07:00pm 28.1 N 2 4 1007.1 - 0.0 - - - - - - -
23/06:30pm 28.8 NNE 4 5 1006.5 - 0.0 - - - - - - -
23/06:00pm 29.5 N 3 6 1006.5 - 0.0 - - - - - - -
23/05:30pm 29.8 N 3 5 1006.7 - 0.0 - - - - - - -
23/05:00pm 31.5 NW 6 9 1006.2 - 0.0 - - - - - - -
23/04:30pm 30.3 N 5 7 1006.1 - 0.0 - - - - - - -
23/04:00pm 30.0 NNW 4 6 1006.2 - 0.0 - - - - - - -
23/03:30pm 30.9 N 4 5 1006.3 - 0.0 - - - - - - -
23/03:00pm 30.1 NE 6 8 1006.9 - 0.0 - - - - - - -
23/02:30pm 30.3 NE 6 9 1007.3 - 0.0 - - - - - - -
23/02:00pm 30.9 NNE 6 8 1007.7 - 0.0 - - - - - - -
23/01:30pm 30.2 N 3 7 1008.2 - 0.0 - - - - - - -
23/01:00pm 29.5 N 4 6 1008.8 - 0.0 - - - - - - -
23/12:30pm 29.6 NNW 5 7 1009.0 - 0.0 - - - - - - -
23/12:00pm 29.2 N 2 5 1009.5 - 0.0 - - - - - - -
23/11:30am 28.9 N 4 7 1009.8 - 0.0 - - - - - - -
23/11:00am 29.0 N 4 6 1010.3 - 0.0 - - - - - - -
23/10:30am 29.3 N 4 7 1010.3 - 0.0 - - - - - - -
23/10:00am 29.7 NNW 4 6 1010.4 - 0.0 - - - - - - -
23/09:30am 29.4 SSE 1 5 1010.2 - 0.0 - - - - - - -
23/09:00am 29.0 CALM 0 0 1010.1 - 1.2 - - - - - - -
23/08:30am 28.2 CALM 0 0 1010.0 - 1.2 - - - - - - -
23/08:00am 27.4 CALM 0 0 1009.4 - 1.2 - - - - - - -
23/07:30am 26.8 CALM 0 0 1008.9 - 1.2 - - - - - - -
23/07:00am 26.0 CALM 0 0 1008.7 - 1.2 - - - - - - -
23/06:30am 26.0 SE 5 7 1008.2 - 1.2 - - - - - - -
23/06:00am 26.1 SE 4 5 1008.2 - 1.2 - - - - - - -
23/05:30am 26.6 SSE 3 5 1007.9 - 1.2 - - - - - - -
23/05:00am 26.5 S 1 3 1007.8 - 1.2 - - - - - - -
23/04:30am 26.7 S 4 5 1007.8 - 1.2 - - - - - - -
23/04:00am 26.7 S 1 4 1007.8 - 1.2 - - - - - - -
23/03:30am 26.4 CALM 0 0 1007.5 - 1.2 - - - - - - -
23/03:00am 26.7 S 4 5 1007.7 - 1.2 - - - - - - -
23/02:30am 26.8 S 1 3 1008.1 - 1.2 - - - - - - -
23/02:00am 26.6 SW 3 4 1008.5 - 1.2 - - - - - - -
23/01:30am 26.4 WSW 4 4 1009.0 - 1.2 - - - - - - -
23/01:00am 26.5 SW 4 4 1009.3 - 1.2 - - - - - - -
23/12:30am 26.6 WSW 4 5 1009.7 - 1.2 - - - - - - -
23/12:00am 26.8 WSW 5 6 1009.9 - 1.2 - - - - - - -
 
Date/Time
CST
Temp
°C
Wind Pressure Rain since
9am
mm
Weather Cloud Vis
km
Sea
Height
m
Swell
Dir  Spd
kts
Gust
kts
hPa Trend Height
m
Period
s
Dir
22/11:30pm 27.0 WSW 5 7 1009.9 - 1.2 - - - - - - -
22/11:00pm 27.1 WSW 6 8 1009.8 - 1.2 - - - - - - -
22/10:30pm 27.2 SW 5 7 1010.0 - 1.2 - - - - - - -
22/10:00pm 27.4 W 5 6 1009.8 - 1.2 - - - - - - -
22/09:30pm 27.4 WNW 7 8 1009.4 - 1.2 - - - - - - -
22/09:00pm 27.4 WNW 7 9 1008.8 - 1.2 - - - - - - -
22/08:30pm 27.3 WNW 6 8 1008.7 - 1.2 - - - - - - -
22/08:00pm 27.5 WNW 7 9 1008.4 - 1.2 - - - - - - -
22/07:30pm 27.9 WNW 7 8 1008.0 - 1.2 - - - - - - -
22/07:00pm 27.9 WNW 8 11 1007.6 - 1.2 - - - - - - -
22/06:30pm 28.1 WNW 9 11 1007.3 - 1.2 - - - - - - -
22/06:00pm 28.5 WNW 10 13 1006.8 - 1.2 - - - - - - -
22/05:30pm 29.2 WNW 9 12 1006.6 - 1.2 - - - - - - -
22/05:00pm 29.6 WNW 10 13 1006.4 - 1.2 - - - - - - -
22/04:30pm 29.3 WNW 9 11 1006.9 - 1.2 - - - - - - -
22/04:00pm 30.5 WNW 8 12 1006.8 - 1.2 - - - - - - -
22/03:30pm 29.2 WNW 10 13 1006.9 - 1.2 - - - - - - -
22/03:00pm 30.2 NW 11 15 1007.0 - 1.2 - - - - - - -
22/02:30pm 29.7 NNW 10 16 1007.7 - 1.2 - - - - - - -
22/02:00pm 31.0 NNW 10 14 1008.0 - 1.2 - - - - - - -

Other Formats:

Comma delimited format used in spreadsheet applications
http://www.bom.gov.au/fwo/IDD60701/IDD60701.94127.axf

JavaScript Object Notation format (JSON) in row-major order
http://www.bom.gov.au/fwo/IDD60701/IDD60701.94127.json